createdAt,value
2019-02-24T00:01:39.166Z,15.27
2019-02-24T00:04:03.564Z,18.17
2019-02-24T00:06:27.998Z,16.33
2019-02-24T00:08:52.433Z,16.20
2019-02-24T00:11:16.885Z,16.63
2019-02-24T00:13:41.304Z,16.07
2019-02-24T00:16:05.716Z,15.57
2019-02-24T00:18:30.133Z,15.97
2019-02-24T00:20:54.782Z,16.73
2019-02-24T00:23:37.224Z,16.50
2019-02-24T00:26:19.256Z,14.43
2019-02-24T00:28:43.076Z,15.93
2019-02-24T00:31:08.021Z,14.70
2019-02-24T00:33:32.423Z,14.83
2019-02-24T00:35:57.073Z,14.20
2019-02-24T00:38:21.522Z,14.10
2019-02-24T00:40:45.923Z,15.13
2019-02-24T00:43:10.338Z,14.93
2019-02-24T00:45:34.746Z,16.50
2019-02-24T00:47:59.187Z,15.70
2019-02-24T00:50:23.598Z,15.03
2019-02-24T00:52:48.055Z,15.93
2019-02-24T00:55:12.466Z,14.90
2019-02-24T00:57:36.971Z,14.77
2019-02-24T01:00:01.646Z,15.03
2019-02-24T01:02:26.059Z,15.07
2019-02-24T01:04:50.495Z,16.03
2019-02-24T01:07:14.901Z,14.87
2019-02-24T01:09:39.714Z,14.93
2019-02-24T01:12:04.190Z,14.40
2019-02-24T01:14:29.052Z,15.83
2019-02-24T01:16:53.452Z,15.83
2019-02-24T01:19:18.249Z,14.90
2019-02-24T01:21:43.003Z,14.77
2019-02-24T01:24:07.440Z,14.73
2019-02-24T01:26:31.836Z,14.47
2019-02-24T01:28:56.290Z,14.13
2019-02-24T01:31:21.036Z,15.73
2019-02-24T01:33:45.437Z,15.30
2019-02-24T01:36:09.884Z,15.27
2019-02-24T01:38:34.699Z,15.53
2019-02-24T01:40:59.136Z,15.73
2019-02-24T01:43:23.724Z,15.83
2019-02-24T01:45:48.505Z,15.40
2019-02-24T01:48:12.921Z,15.53
2019-02-24T01:50:37.410Z,15.63
2019-02-24T01:53:01.909Z,16.00
2019-02-24T01:55:26.339Z,15.77
2019-02-24T01:57:50.740Z,15.33
2019-02-24T02:00:15.239Z,15.50
2019-02-24T02:02:39.650Z,15.30
2019-02-24T02:05:05.229Z,16.33
2019-02-24T02:07:29.641Z,15.63
2019-02-24T02:09:54.856Z,15.47
2019-02-24T02:12:19.346Z,16.60
2019-02-24T02:14:43.761Z,16.87
2019-02-24T02:17:08.180Z,16.23
2019-02-24T02:19:32.654Z,17.03
2019-02-24T02:21:57.016Z,18.47
2019-02-24T02:24:21.560Z,19.37
2019-02-24T02:26:45.980Z,19.07
2019-02-24T02:29:10.415Z,18.57
2019-02-24T02:31:34.914Z,16.97
2019-02-24T02:33:59.324Z,16.97
2019-02-24T02:36:23.762Z,17.00
2019-02-24T02:38:48.178Z,16.60
2019-02-24T02:41:12.571Z,15.67
2019-02-24T02:43:36.996Z,16.13
2019-02-24T02:46:01.404Z,16.63
2019-02-24T02:48:25.834Z,17.23
2019-02-24T02:50:50.232Z,15.63
2019-02-24T02:53:14.661Z,16.57
2019-02-24T02:55:39.054Z,16.27
2019-02-24T02:58:03.533Z,15.30
2019-02-24T03:00:35.593Z,13.80
2019-02-24T03:03:00.008Z,13.40
2019-02-24T03:05:24.417Z,14.33
2019-02-24T03:07:50.668Z,14.47
2019-02-24T03:10:15.178Z,15.00
2019-02-24T03:12:41.151Z,14.57
2019-02-24T03:15:06.451Z,15.63
2019-02-24T03:17:30.866Z,15.30
2019-02-24T03:19:55.321Z,14.87
2019-02-24T03:22:19.745Z,15.63
2019-02-24T03:24:44.185Z,15.00
2019-02-24T03:27:08.604Z,14.43
2019-02-24T03:29:33.045Z,16.23
2019-02-24T03:31:57.542Z,15.23
2019-02-24T03:34:21.984Z,16.20
2019-02-24T03:36:46.405Z,15.77
2019-02-24T03:39:10.853Z,15.17
2019-02-24T03:41:35.317Z,15.73
2019-02-24T03:43:59.795Z,15.63
2019-02-24T03:46:24.351Z,15.60
2019-02-24T03:48:48.760Z,16.77
2019-02-24T03:51:13.201Z,15.93
2019-02-24T03:53:37.754Z,15.67
2019-02-24T03:56:02.268Z,15.77
2019-02-24T03:58:26.831Z,15.67
2019-02-24T04:00:51.424Z,15.90
2019-02-24T04:03:15.843Z,16.73
2019-02-24T04:05:40.319Z,16.00
2019-02-24T04:08:04.891Z,15.70
2019-02-24T04:10:29.316Z,16.50
2019-02-24T04:12:53.902Z,16.97
2019-02-24T04:15:18.396Z,15.60
2019-02-24T04:17:42.847Z,16.17
2019-02-24T04:20:07.501Z,16.33
2019-02-24T04:22:32.056Z,16.20
2019-02-24T04:24:56.470Z,16.27
2019-02-24T04:27:20.927Z,16.17
2019-02-24T04:29:45.341Z,16.67
2019-02-24T04:32:09.805Z,16.93
2019-02-24T04:34:34.400Z,16.17
2019-02-24T04:36:58.857Z,16.30
2019-02-24T04:39:23.363Z,16.77
2019-02-24T04:41:48.306Z,16.63
2019-02-24T04:44:12.829Z,15.73
2019-02-24T04:46:37.353Z,15.87
2019-02-24T04:49:01.866Z,17.10
2019-02-24T04:51:26.303Z,16.47
2019-02-24T04:53:50.730Z,16.70
2019-02-24T04:56:15.143Z,16.43
2019-02-24T04:58:39.890Z,17.27
2019-02-24T05:01:04.319Z,17.23
2019-02-24T05:03:28.763Z,17.43
2019-02-24T05:05:53.184Z,17.57
2019-02-24T05:08:17.690Z,17.97
2019-02-24T05:10:42.230Z,18.07
2019-02-24T05:13:06.713Z,17.33
2019-02-24T05:15:31.151Z,16.83
2019-02-24T05:17:55.598Z,18.00
2019-02-24T05:20:20.052Z,18.40
2019-02-24T05:22:44.463Z,17.60
2019-02-24T05:25:08.993Z,17.97
2019-02-24T05:27:33.412Z,17.83
2019-02-24T05:30:00.315Z,17.60
2019-02-24T05:32:24.691Z,17.90
2019-02-24T05:34:49.211Z,17.43
2019-02-24T05:37:13.710Z,17.33
2019-02-24T05:39:38.189Z,17.60
2019-02-24T05:42:02.592Z,17.73
2019-02-24T05:44:27.028Z,17.83
2019-02-24T05:46:51.485Z,17.57
2019-02-24T05:49:15.918Z,18.27
2019-02-24T05:51:40.356Z,17.27
2019-02-24T05:54:04.845Z,17.50
2019-02-24T05:56:29.286Z,17.87
2019-02-24T05:58:53.723Z,18.07
2019-02-24T06:01:19.936Z,17.60
2019-02-24T06:03:44.510Z,18.60
2019-02-24T06:06:09.039Z,17.40
2019-02-24T06:08:33.651Z,18.73
2019-02-24T06:10:58.111Z,17.83
2019-02-24T06:13:22.519Z,17.07
2019-02-24T06:15:46.950Z,17.70
2019-02-24T06:18:11.485Z,17.83
2019-02-24T06:20:37.953Z,17.00
2019-02-24T06:23:02.058Z,17.63
2019-02-24T06:25:26.509Z,17.40
2019-02-24T06:27:51.092Z,17.30
2019-02-24T06:30:15.506Z,17.10
2019-02-24T06:32:39.953Z,16.70
2019-02-24T06:35:06.309Z,16.33
2019-02-24T06:37:30.768Z,17.67
2019-02-24T06:39:55.243Z,17.63
2019-02-24T06:42:19.701Z,17.03
2019-02-24T06:44:44.123Z,17.07
2019-02-24T06:47:08.706Z,17.37
2019-02-24T06:49:33.135Z,17.20
2019-02-24T06:51:57.564Z,17.83
2019-02-24T06:54:22.005Z,18.27
2019-02-24T06:56:46.433Z,17.40
2019-02-24T06:59:10.898Z,17.37
2019-02-24T07:01:35.309Z,17.20
2019-02-24T07:03:59.832Z,17.37
2019-02-24T07:06:24.327Z,18.07
2019-02-24T07:08:48.807Z,17.63
2019-02-24T07:11:13.228Z,17.33
2019-02-24T07:13:37.667Z,18.23
2019-02-24T07:16:02.263Z,18.20
2019-02-24T07:18:26.715Z,18.97
2019-02-24T07:20:51.128Z,18.90
2019-02-24T07:23:15.570Z,19.73
2019-02-24T07:25:39.984Z,19.30
2019-02-24T07:28:04.565Z,19.60
2019-02-24T07:30:28.970Z,19.63
2019-02-24T07:32:53.381Z,17.50
2019-02-24T07:35:17.843Z,18.73
2019-02-24T07:37:42.268Z,18.00
2019-02-24T07:40:06.959Z,16.50
2019-02-24T07:42:31.362Z,17.73
2019-02-24T07:44:55.918Z,17.10
2019-02-24T07:47:20.498Z,16.50
2019-02-24T07:49:44.928Z,17.03
2019-02-24T07:52:09.366Z,17.70
2019-02-24T07:54:33.783Z,16.77
2019-02-24T07:56:58.221Z,16.07
2019-02-24T07:59:22.667Z,16.47
2019-02-24T08:01:47.088Z,17.10
2019-02-24T08:04:11.507Z,17.47
2019-02-24T08:06:36.034Z,17.27
2019-02-24T08:09:00.465Z,16.97
2019-02-24T08:11:24.905Z,17.83
2019-02-24T08:13:49.333Z,15.83
2019-02-24T08:16:13.843Z,14.40
2019-02-24T08:18:38.348Z,14.27
2019-02-24T08:21:02.843Z,13.67
2019-02-24T08:23:27.358Z,14.00
2019-02-24T08:25:51.814Z,14.00
2019-02-24T08:28:16.402Z,14.43
2019-02-24T08:30:41.802Z,14.40
2019-02-24T08:33:06.469Z,14.23
2019-02-24T08:35:30.957Z,14.20
2019-02-24T08:37:55.371Z,13.00
2019-02-24T08:40:19.825Z,12.27
2019-02-24T08:42:44.245Z,12.67
2019-02-24T08:45:10.020Z,12.27
2019-02-24T08:47:34.547Z,11.80
2019-02-24T08:49:59.019Z,12.20
2019-02-24T08:52:23.476Z,12.37
2019-02-24T08:54:47.937Z,13.00
2019-02-24T08:57:12.492Z,11.00
2019-02-24T08:59:38.250Z,11.67
2019-02-24T09:02:02.830Z,11.00
2019-02-24T09:04:27.309Z,10.10
2019-02-24T09:06:51.782Z,10.33
2019-02-24T09:09:16.289Z,10.23
2019-02-24T09:11:40.848Z,10.77
2019-02-24T09:14:05.239Z,10.87
2019-02-24T09:16:29.678Z,10.77
2019-02-24T09:18:54.176Z,9.87
2019-02-24T09:21:18.711Z,11.10
2019-02-24T09:23:43.235Z,11.67
2019-02-24T09:26:08.609Z,11.20
2019-02-24T09:28:33.128Z,11.10
2019-02-24T09:31:00.785Z,10.23
2019-02-24T09:33:23.720Z,11.17
2019-02-24T09:35:48.153Z,10.37
2019-02-24T09:38:12.588Z,10.93
2019-02-24T09:40:37.013Z,9.83
2019-02-24T09:43:01.482Z,10.30
2019-02-24T09:45:25.982Z,10.00
2019-02-24T09:47:50.448Z,10.23
2019-02-24T09:50:14.869Z,10.57
2019-02-24T09:52:39.383Z,9.37
2019-02-24T09:55:04.611Z,9.10
2019-02-24T09:57:29.045Z,9.77
2019-02-24T09:59:53.453Z,9.40
2019-02-24T10:02:17.909Z,9.43
2019-02-24T10:04:42.322Z,9.77
2019-02-24T10:07:06.873Z,9.03
2019-02-24T10:09:31.373Z,9.13
2019-02-24T10:11:55.798Z,9.03
2019-02-24T10:14:20.308Z,8.63
2019-02-24T10:16:44.749Z,8.73
2019-02-24T10:19:09.189Z,8.70
2019-02-24T10:21:33.609Z,7.90
2019-02-24T10:23:58.062Z,7.77
2019-02-24T10:26:22.471Z,7.53
2019-02-24T10:28:47.790Z,7.43
2019-02-24T10:31:19.583Z,7.67
2019-02-24T10:33:38.503Z,7.80
2019-02-24T10:36:02.932Z,7.77
2019-02-24T10:38:27.326Z,7.90
2019-02-24T10:40:51.783Z,7.40
2019-02-24T10:43:16.165Z,7.10
2019-02-24T10:45:40.562Z,6.97
2019-02-24T10:48:13.685Z,8.00
2019-02-24T10:50:31.147Z,7.93
2019-02-24T10:52:55.541Z,7.40
2019-02-24T10:55:20.108Z,7.70
2019-02-24T10:57:44.504Z,7.97
2019-02-24T11:00:18.004Z,7.43
2019-02-24T11:02:42.495Z,7.43
2019-02-24T11:05:07.859Z,7.80
2019-02-24T11:07:32.271Z,7.50
2019-02-24T11:09:56.736Z,7.43
2019-02-24T11:12:21.149Z,7.00
2019-02-24T11:14:45.552Z,6.80
2019-02-24T11:17:09.968Z,6.50
2019-02-24T11:19:34.369Z,6.73
2019-02-24T11:21:58.808Z,6.70
2019-02-24T11:24:23.212Z,6.87
2019-02-24T11:26:47.654Z,6.10
2019-02-24T11:29:12.053Z,7.00
2019-02-24T11:31:38.594Z,6.17
2019-02-24T11:34:02.631Z,6.83
2019-02-24T11:36:27.063Z,6.27
2019-02-24T11:38:51.456Z,6.40
2019-02-24T11:41:16.002Z,6.17
2019-02-24T11:43:40.402Z,6.77
2019-02-24T11:46:04.837Z,6.60
2019-02-24T11:48:29.241Z,6.23
2019-02-24T11:50:53.742Z,7.03
2019-02-24T11:53:18.153Z,6.70
2019-02-24T11:55:42.579Z,6.00
2019-02-24T11:58:07.052Z,6.80
2019-02-24T12:00:31.557Z,6.17
2019-02-24T12:02:56.086Z,6.17
2019-02-24T12:05:20.698Z,6.33
2019-02-24T12:07:45.121Z,6.43
2019-02-24T12:10:11.173Z,5.97
2019-02-24T12:12:35.693Z,5.53
2019-02-24T12:15:00.289Z,5.80
2019-02-24T12:17:24.709Z,5.80
2019-02-24T12:19:49.103Z,5.67
2019-02-24T12:22:13.504Z,5.37
2019-02-24T12:24:37.941Z,5.33
2019-02-24T12:27:02.338Z,6.30
2019-02-24T12:29:28.435Z,5.73
2019-02-24T12:31:56.602Z,5.57
2019-02-24T12:34:19.247Z,5.60
2019-02-24T12:36:43.634Z,6.50
2019-02-24T12:39:11.346Z,6.60
2019-02-24T12:41:37.285Z,6.20
2019-02-24T12:44:01.718Z,6.37
2019-02-24T12:46:26.125Z,5.97
2019-02-24T12:48:50.542Z,6.00
2019-02-24T12:51:15.012Z,5.83
2019-02-24T12:53:39.672Z,5.90
2019-02-24T12:56:04.267Z,5.90
2019-02-24T12:58:28.753Z,5.97
2019-02-24T13:00:53.605Z,5.97
2019-02-24T13:03:23.999Z,5.83
2019-02-24T13:05:44.239Z,5.42
2019-02-24T13:08:08.649Z,5.42
2019-02-24T13:10:33.253Z,5.53
2019-02-24T13:12:57.747Z,5.33
2019-02-24T13:15:23.022Z,5.60
2019-02-24T13:17:47.569Z,6.47
2019-02-24T13:20:12.240Z,5.83
2019-02-24T13:22:36.713Z,5.42
2019-02-24T13:25:01.170Z,5.58
2019-02-24T13:27:28.763Z,5.85
2019-02-24T13:29:53.270Z,5.08
2019-02-24T13:32:17.676Z,5.50
2019-02-24T13:34:42.142Z,5.08
2019-02-24T13:37:06.608Z,5.05
2019-02-24T13:39:32.758Z,4.80
2019-02-24T13:41:57.251Z,4.62
2019-02-24T13:44:21.696Z,4.67
2019-02-24T13:46:46.105Z,4.87
2019-02-24T13:49:10.533Z,5.00
2019-02-24T13:51:34.964Z,4.75
2019-02-24T13:53:59.383Z,4.70
2019-02-24T13:56:23.923Z,4.62
2019-02-24T13:58:48.339Z,4.50
2019-02-24T14:01:12.769Z,4.37
2019-02-24T14:03:37.179Z,5.00
2019-02-24T14:06:01.674Z,4.75
2019-02-24T14:08:27.703Z,4.45
2019-02-24T14:10:52.396Z,4.60
2019-02-24T14:13:16.805Z,4.45
2019-02-24T14:15:41.245Z,4.60
2019-02-24T14:18:05.643Z,4.85
2019-02-24T14:20:30.071Z,5.45
2019-02-24T14:22:54.475Z,5.10
2019-02-24T14:25:18.890Z,5.60
2019-02-24T14:27:43.307Z,7.08
2019-02-24T14:30:16.427Z,9.00
2019-02-24T14:32:40.830Z,7.00
2019-02-24T14:35:08.335Z,7.62
2019-02-24T14:37:32.814Z,5.42
2019-02-24T14:39:57.220Z,3.10
2019-02-24T14:42:21.640Z,3.25
2019-02-24T14:44:46.112Z,2.42
2019-02-24T14:47:10.544Z,2.40
2019-02-24T14:49:34.944Z,2.40
2019-02-24T14:51:59.358Z,3.58
2019-02-24T14:54:25.645Z,3.80
2019-02-24T14:56:50.186Z,4.50
2019-02-24T14:59:14.773Z,4.42
2019-02-24T15:01:39.265Z,3.95
2019-02-24T15:04:03.878Z,3.90
2019-02-24T15:06:28.526Z,3.60
2019-02-24T15:08:53.012Z,3.58
2019-02-24T15:11:17.565Z,3.70
2019-02-24T15:13:42.083Z,4.35
2019-02-24T15:16:06.478Z,4.08
2019-02-24T15:18:30.917Z,4.50
2019-02-24T15:20:55.335Z,4.40
2019-02-24T15:23:19.754Z,5.37
2019-02-24T15:25:44.252Z,5.53
2019-02-24T15:28:08.705Z,6.05
2019-02-24T15:30:34.538Z,6.25
2019-02-24T15:32:59.225Z,6.33
2019-02-24T15:35:23.703Z,6.75
2019-02-24T15:37:48.118Z,6.60
2019-02-24T15:40:12.515Z,6.25
2019-02-24T15:42:36.932Z,6.70
2019-02-24T15:45:01.329Z,6.10
2019-02-24T15:47:25.755Z,6.60
2019-02-24T15:49:50.159Z,6.87
2019-02-24T15:52:14.607Z,6.60
2019-02-24T15:54:39.001Z,7.10
2019-02-24T15:57:03.507Z,6.43
2019-02-24T15:59:27.949Z,7.07
2019-02-24T16:01:52.361Z,7.17
2019-02-24T16:04:16.790Z,7.03
2019-02-24T16:06:41.201Z,6.20
2019-02-24T16:09:07.360Z,6.60
2019-02-24T16:11:31.778Z,6.17
2019-02-24T16:13:56.203Z,6.60
2019-02-24T16:16:20.615Z,5.97
2019-02-24T16:18:45.063Z,5.70
2019-02-24T16:21:09.467Z,5.93
2019-02-24T16:23:33.897Z,5.90
2019-02-24T16:25:58.315Z,6.03
2019-02-24T16:28:22.745Z,6.60
2019-02-24T16:30:47.160Z,7.13
2019-02-24T16:33:11.678Z,7.10
2019-02-24T16:35:36.086Z,6.40
2019-02-24T16:38:00.526Z,5.73
2019-02-24T16:40:26.769Z,6.00
2019-02-24T16:42:51.269Z,5.93
2019-02-24T16:45:16.823Z,5.53
2019-02-24T16:47:41.289Z,6.20
2019-02-24T16:50:08.803Z,6.37
2019-02-24T16:52:33.247Z,5.83
2019-02-24T16:54:57.641Z,5.53
2019-02-24T16:57:22.041Z,5.90
2019-02-24T16:59:46.478Z,5.80
2019-02-24T17:02:11.036Z,5.50
2019-02-24T17:04:35.581Z,6.20
2019-02-24T17:07:00.060Z,5.57
2019-02-24T17:09:24.510Z,5.80
2019-02-24T17:11:49.000Z,5.33
2019-02-24T17:14:13.446Z,5.57
2019-02-24T17:16:37.861Z,6.17
2019-02-24T17:19:02.289Z,5.67
2019-02-24T17:21:26.699Z,5.50
2019-02-24T17:23:52.419Z,5.37
2019-02-24T17:26:16.930Z,5.60
2019-02-24T17:28:41.355Z,6.07
2019-02-24T17:31:07.078Z,6.90
2019-02-24T17:33:32.722Z,7.10
2019-02-24T17:35:57.210Z,6.33
2019-02-24T17:38:21.617Z,5.60
2019-02-24T17:40:46.047Z,5.97
2019-02-24T17:43:10.466Z,5.83
2019-02-24T17:45:34.892Z,6.13
2019-02-24T17:47:59.308Z,6.57
2019-02-24T17:50:23.813Z,6.23
2019-02-24T17:52:48.311Z,6.20
2019-02-24T17:55:15.258Z,6.53
2019-02-24T17:57:39.739Z,6.83
2019-02-24T18:00:06.836Z,6.70
2019-02-24T18:02:31.230Z,6.97
2019-02-24T18:04:55.709Z,7.17
2019-02-24T18:07:20.193Z,7.27
2019-02-24T18:09:44.624Z,7.10
2019-02-24T18:12:09.033Z,7.17
2019-02-24T18:14:33.531Z,7.23
2019-02-24T18:16:58.004Z,7.17
2019-02-24T18:19:22.460Z,6.70
2019-02-24T18:21:46.901Z,7.33
2019-02-24T18:24:11.374Z,6.60
2019-02-24T18:26:35.859Z,7.50
2019-02-24T18:29:00.259Z,6.67
2019-02-24T18:31:24.694Z,7.23
2019-02-24T18:33:49.093Z,7.10
2019-02-24T18:36:13.629Z,7.03
2019-02-24T18:38:38.216Z,7.50
2019-02-24T18:41:02.723Z,7.17
2019-02-24T18:43:27.666Z,6.53
2019-02-24T18:45:52.100Z,5.80
2019-02-24T18:48:16.652Z,7.07
2019-02-24T18:50:41.124Z,6.67
2019-02-24T18:53:06.524Z,6.30
2019-02-24T18:55:30.946Z,6.17
2019-02-24T18:57:55.370Z,7.20
2019-02-24T19:00:20.775Z,8.50
2019-02-24T19:02:45.200Z,7.30
2019-02-24T19:05:10.147Z,8.77
2019-02-24T19:07:34.585Z,7.43
2019-02-24T19:09:58.999Z,8.67
2019-02-24T19:12:23.475Z,8.40
2019-02-24T19:14:48.094Z,8.40
2019-02-24T19:17:12.540Z,8.90
2019-02-24T19:19:36.947Z,8.80
2019-02-24T19:22:01.440Z,10.80
2019-02-24T19:24:25.845Z,8.67
2019-02-24T19:26:50.270Z,9.03
2019-02-24T19:29:14.677Z,10.10
2019-02-24T19:31:39.080Z,9.43
2019-02-24T19:34:06.758Z,8.97
2019-02-24T19:36:29.641Z,9.37
2019-02-24T19:38:54.085Z,8.87
2019-02-24T19:41:18.576Z,9.20
2019-02-24T19:43:43.375Z,7.83
2019-02-24T19:46:07.835Z,7.77
2019-02-24T19:48:32.241Z,7.73
2019-02-24T19:50:56.804Z,8.17
2019-02-24T19:53:21.370Z,8.87
2019-02-24T19:55:45.802Z,9.67
2019-02-24T19:58:10.254Z,11.10
2019-02-24T20:00:34.815Z,12.60
2019-02-24T20:02:59.534Z,12.97
2019-02-24T20:05:24.072Z,12.33
2019-02-24T20:07:48.771Z,12.20
2019-02-24T20:10:24.069Z,12.37
2019-02-24T20:12:48.483Z,12.67
2019-02-24T20:15:15.077Z,13.40
2019-02-24T20:17:39.625Z,13.83
2019-02-24T20:20:06.103Z,10.20
2019-02-24T20:22:30.524Z,9.60
2019-02-24T20:24:54.959Z,9.40
2019-02-24T20:27:19.375Z,9.43
2019-02-24T20:29:43.947Z,8.83
2019-02-24T20:32:08.447Z,8.53
2019-02-24T20:34:32.982Z,9.33
2019-02-24T20:36:57.426Z,8.70
2019-02-24T20:39:21.900Z,8.50
2019-02-24T20:41:46.321Z,8.63
2019-02-24T20:44:10.736Z,8.60
2019-02-24T20:46:35.186Z,8.50
2019-02-24T20:48:59.616Z,8.43
2019-02-24T20:51:24.150Z,8.70
2019-02-24T20:53:48.576Z,8.37
2019-02-24T20:56:13.092Z,8.40
2019-02-24T20:58:37.504Z,8.07
2019-02-24T21:01:02.034Z,8.53
2019-02-24T21:03:26.448Z,8.53
2019-02-24T21:05:50.945Z,8.57
2019-02-24T21:08:15.372Z,8.37
2019-02-24T21:10:39.948Z,8.33
2019-02-24T21:13:04.433Z,8.93
2019-02-24T21:15:29.018Z,7.80
2019-02-24T21:17:53.501Z,8.47
2019-02-24T21:20:20.597Z,8.40
2019-02-24T21:22:45.115Z,9.07
2019-02-24T21:25:09.672Z,8.73
2019-02-24T21:27:34.106Z,7.87
2019-02-24T21:29:58.522Z,7.77
2019-02-24T21:32:22.965Z,9.33
2019-02-24T21:34:47.385Z,9.13
2019-02-24T21:37:11.861Z,8.63
2019-02-24T21:39:36.275Z,8.73
2019-02-24T21:42:00.735Z,9.47
2019-02-24T21:44:25.161Z,10.20
2019-02-24T21:46:49.630Z,12.03
2019-02-24T21:49:14.046Z,13.23
2019-02-24T21:51:38.540Z,13.27
2019-02-24T21:54:02.995Z,14.47
2019-02-24T21:56:27.473Z,13.00
2019-02-24T21:58:51.924Z,13.57
2019-02-24T22:01:16.354Z,16.83
2019-02-24T22:03:40.815Z,19.10
2019-02-24T22:06:05.319Z,19.27
2019-02-24T22:08:29.778Z,17.33
2019-02-24T22:10:54.203Z,18.93
2019-02-24T22:13:18.720Z,15.57
2019-02-24T22:15:43.146Z,18.50
2019-02-24T22:18:07.597Z,17.47
2019-02-24T22:20:32.053Z,17.27
2019-02-24T22:22:56.545Z,12.30
2019-02-24T22:25:21.056Z,11.30
2019-02-24T22:27:45.549Z,12.23
2019-02-24T22:30:15.722Z,24.07
2019-02-24T22:32:40.381Z,26.57
2019-02-24T22:35:06.072Z,31.93
2019-02-24T22:37:30.498Z,32.00
2019-02-24T22:39:54.949Z,26.57
2019-02-24T22:42:19.436Z,22.57
2019-02-24T22:44:43.877Z,23.37
2019-02-24T22:47:08.360Z,20.60
2019-02-24T22:49:32.798Z,19.10
2019-02-24T22:51:57.215Z,18.23
2019-02-24T22:54:21.671Z,16.63
2019-02-24T22:56:46.086Z,20.00
2019-02-24T22:59:10.548Z,17.20
2019-02-24T23:01:35.489Z,21.23
2019-02-24T23:04:04.904Z,21.37
2019-02-24T23:06:30.489Z,25.10
2019-02-24T23:08:54.995Z,24.83
2019-02-24T23:11:19.645Z,19.33
2019-02-24T23:13:44.300Z,22.53
2019-02-24T23:16:09.689Z,21.53
2019-02-24T23:18:34.759Z,20.67
2019-02-24T23:20:59.689Z,18.97
2019-02-24T23:23:24.805Z,18.20
2019-02-24T23:25:50.067Z,17.63
2019-02-24T23:28:14.751Z,15.97
2019-02-24T23:30:40.044Z,11.90
2019-02-24T23:33:05.434Z,15.17
2019-02-24T23:35:30.376Z,12.77
2019-02-24T23:37:55.434Z,11.77
2019-02-24T23:40:20.259Z,12.87
2019-02-24T23:42:45.173Z,11.40
2019-02-24T23:45:13.262Z,10.73
2019-02-24T23:47:37.805Z,11.00
2019-02-24T23:50:02.447Z,10.87
2019-02-24T23:52:26.868Z,10.53
2019-02-24T23:54:51.274Z,10.00
2019-02-24T23:57:15.715Z,9.53
2019-02-24T23:59:40.138Z,9.57
